High Level, High Level Airport (CYOJ)

NameHigh Level Airport
CityHigh Level
CountryCanada
ICAOCYOJ
IATAYOJ
Altitude338 m
CoordinatesGoogle Map
Live Air TrafficLiveATC.net
METARCYOJ 220500Z 13003KT 15SM OVC035 M19/M21 A2998 RMK SC8 LAST STFD OBS/NEXT 221400 UTC PRESFR SLP194
2019-01-22 05:00:00 Wind: East-Southeast (130°) 1.54 m/s - Visibility: 24140.1 m - Temperature: -19 °C - Dew point: -21 °C - Humidity: 84.3% - Pressure: 1015.24 hPa
Statistics

The table below shows the detailed information of all flights to/from High Level, High Level Airport (CYOJ).